createdAt,value
2022-08-27T00:00:54.533Z,0
2022-08-27T00:02:34.287Z,0
2022-08-27T00:04:14.071Z,0
2022-08-27T00:05:53.811Z,0
2022-08-27T00:07:33.585Z,0
2022-08-27T00:09:13.350Z,0
2022-08-27T00:10:53.110Z,0
2022-08-27T00:12:32.883Z,0
2022-08-27T00:14:12.645Z,0
2022-08-27T00:15:52.393Z,0
2022-08-27T00:17:32.172Z,0
2022-08-27T00:19:11.918Z,0
2022-08-27T00:20:51.685Z,0
2022-08-27T00:22:31.457Z,0
2022-08-27T00:24:11.228Z,0
2022-08-27T00:25:50.988Z,0
2022-08-27T00:27:30.749Z,0
2022-08-27T00:29:10.516Z,0
2022-08-27T00:30:50.283Z,0
2022-08-27T00:34:09.816Z,0
2022-08-27T00:35:49.579Z,0
2022-08-27T00:37:29.323Z,0
2022-08-27T00:39:09.098Z,0
2022-08-27T00:40:48.853Z,0
2022-08-27T00:42:28.629Z,0
2022-08-27T00:44:08.395Z,0
2022-08-27T00:45:48.157Z,0
2022-08-27T00:47:27.921Z,0
2022-08-27T00:49:07.690Z,0
2022-08-27T00:50:47.446Z,0
2022-08-27T00:52:27.224Z,0
2022-08-27T00:54:06.983Z,0
2022-08-27T00:55:46.726Z,0
2022-08-27T00:57:26.504Z,0
2022-08-27T00:59:06.264Z,0
2022-08-27T01:00:46.029Z,0
2022-08-27T01:02:25.803Z,0
2022-08-27T01:04:05.560Z,0
2022-08-27T01:05:45.328Z,0
2022-08-27T01:07:25.102Z,0
2022-08-27T01:09:04.858Z,0
2022-08-27T01:10:44.615Z,0
2022-08-27T01:14:04.137Z,0
2022-08-27T01:15:43.905Z,0
2022-08-27T01:17:23.665Z,0
2022-08-27T01:19:03.437Z,0
2022-08-27T01:20:43.203Z,0
2022-08-27T01:22:22.960Z,0
2022-08-27T01:24:02.732Z,0
2022-08-27T01:25:42.505Z,0
2022-08-27T01:27:22.262Z,0
2022-08-27T01:29:02.023Z,0
2022-08-27T01:30:41.789Z,0
2022-08-27T01:32:21.533Z,0
2022-08-27T01:34:01.304Z,0
2022-08-27T01:35:41.069Z,0
2022-08-27T01:37:20.836Z,0
2022-08-27T01:39:00.596Z,0
2022-08-27T01:40:40.354Z,0
2022-08-27T01:42:20.124Z,0
2022-08-27T01:43:59.896Z,0
2022-08-27T01:45:39.666Z,0
2022-08-27T01:47:19.429Z,0
2022-08-27T01:48:59.202Z,0
2022-08-27T01:50:38.942Z,0
2022-08-27T01:52:18.723Z,0
2022-08-27T01:53:58.484Z,0
2022-08-27T01:55:38.235Z,0
2022-08-27T01:57:18.007Z,0
2022-08-27T01:58:57.779Z,0
2022-08-27T02:00:37.543Z,0
2022-08-27T02:02:17.323Z,0
2022-08-27T02:03:57.069Z,0
2022-08-27T02:05:36.830Z,0
2022-08-27T02:07:16.602Z,0
2022-08-27T02:08:56.384Z,0
2022-08-27T02:10:36.115Z,0
2022-08-27T02:12:15.892Z,0
2022-08-27T02:13:55.659Z,0
2022-08-27T02:15:35.405Z,0
2022-08-27T02:17:15.180Z,0
2022-08-27T02:18:54.935Z,0
2022-08-27T02:20:34.711Z,0
2022-08-27T02:23:54.228Z,0
2022-08-27T02:25:34.001Z,0
2022-08-27T02:27:13.750Z,0
2022-08-27T02:28:53.520Z,0
2022-08-27T02:30:33.285Z,0
2022-08-27T02:32:13.056Z,0
2022-08-27T02:33:52.817Z,0
2022-08-27T02:35:32.572Z,0
2022-08-27T02:37:12.338Z,0
2022-08-27T02:38:52.113Z,0
2022-08-27T02:40:31.860Z,0
2022-08-27T02:42:11.631Z,0
2022-08-27T02:43:51.397Z,0
2022-08-27T02:45:31.172Z,0
2022-08-27T02:47:10.926Z,0
2022-08-27T02:48:50.697Z,0
2022-08-27T02:50:30.455Z,0
2022-08-27T02:52:10.222Z,0
2022-08-27T02:53:49.987Z,0
2022-08-27T02:55:29.752Z,0
2022-08-27T02:57:09.502Z,0
2022-08-27T02:58:49.275Z,0
2022-08-27T03:00:29.038Z,0
2022-08-27T03:02:08.797Z,0
2022-08-27T03:03:48.567Z,0
2022-08-27T03:05:28.325Z,0
2022-08-27T03:07:08.092Z,0
2022-08-27T03:08:47.847Z,0
2022-08-27T03:10:27.622Z,0
2022-08-27T03:12:07.422Z,0
2022-08-27T03:13:47.149Z,0
2022-08-27T03:15:26.905Z,0
2022-08-27T03:17:06.691Z,0
2022-08-27T03:18:46.451Z,0
2022-08-27T03:20:26.202Z,0
2022-08-27T03:22:05.978Z,0
2022-08-27T03:23:45.733Z,0
2022-08-27T03:25:25.501Z,0
2022-08-27T03:27:05.268Z,0
2022-08-27T03:28:45.029Z,0
2022-08-27T03:30:24.798Z,0
2022-08-27T03:32:04.557Z,0
2022-08-27T03:33:44.319Z,0
2022-08-27T03:35:24.086Z,0
2022-08-27T03:37:03.851Z,0
2022-08-27T03:40:23.374Z,0
2022-08-27T03:42:03.142Z,0
2022-08-27T03:43:42.899Z,0
2022-08-27T03:45:22.671Z,0
2022-08-27T03:47:02.433Z,0
2022-08-27T03:48:42.185Z,0
2022-08-27T03:50:21.968Z,0
2022-08-27T03:52:01.726Z,0
2022-08-27T03:53:41.477Z,0
2022-08-27T03:55:21.238Z,0
2022-08-27T03:57:01.003Z,0
2022-08-27T03:58:40.770Z,0
2022-08-27T04:00:20.540Z,0
2022-08-27T04:02:00.298Z,0
2022-08-27T04:03:40.067Z,0
2022-08-27T04:05:19.846Z,0
2022-08-27T04:06:59.595Z,0
2022-08-27T04:08:39.364Z,0
2022-08-27T04:10:19.125Z,0
2022-08-27T04:11:58.883Z,0
2022-08-27T04:13:38.653Z,0
2022-08-27T04:15:18.419Z,0
2022-08-27T04:16:58.191Z,0
2022-08-27T04:18:37.943Z,0
2022-08-27T04:20:17.703Z,0
2022-08-27T04:21:57.476Z,0
2022-08-27T04:23:37.228Z,0
2022-08-27T04:25:17.013Z,0
2022-08-27T04:26:56.764Z,0
2022-08-27T04:28:36.534Z,0
2022-08-27T04:30:16.296Z,0
2022-08-27T04:31:56.059Z,0
2022-08-27T04:33:35.828Z,0
2022-08-27T04:36:55.342Z,0
2022-08-27T04:38:35.108Z,0
2022-08-27T04:40:14.874Z,0
2022-08-27T04:41:54.640Z,0
2022-08-27T04:43:34.411Z,0
2022-08-27T04:45:14.175Z,0.25
2022-08-27T04:46:53.941Z,0.25
2022-08-27T04:48:33.694Z,0
2022-08-27T04:50:13.481Z,0.25
2022-08-27T04:51:53.234Z,0.25
2022-08-27T04:53:32.986Z,0.12
2022-08-27T04:55:12.757Z,0.12
2022-08-27T04:56:52.508Z,0.25
2022-08-27T05:00:12.056Z,0.25
2022-08-27T05:01:51.811Z,0.25
2022-08-27T05:03:31.576Z,0.12
2022-08-27T05:05:11.351Z,0.12
2022-08-27T05:06:51.104Z,0.25
2022-08-27T05:10:10.623Z,0.38
2022-08-27T05:11:50.397Z,0.25
2022-08-27T05:13:30.168Z,0.38
2022-08-27T05:15:09.934Z,0.38
2022-08-27T05:16:49.828Z,0.51
2022-08-27T05:18:29.445Z,0.51
2022-08-27T05:20:09.223Z,0.51
2022-08-27T05:21:48.975Z,0.64
2022-08-27T05:23:28.742Z,0.64
2022-08-27T05:25:08.507Z,0.51
2022-08-27T05:26:48.285Z,0.64
2022-08-27T05:30:07.799Z,0.77
2022-08-27T05:33:27.340Z,0.9
2022-08-27T05:35:07.099Z,1.03
2022-08-27T05:36:46.866Z,1.03
2022-08-27T05:38:26.617Z,1.16
2022-08-27T05:40:06.393Z,1.16
2022-08-27T05:41:46.149Z,1.44
2022-08-27T05:43:25.916Z,1.31
2022-08-27T05:45:05.670Z,1.44
2022-08-27T05:46:45.435Z,1.58
2022-08-27T05:48:25.207Z,1.58
2022-08-27T05:50:04.975Z,1.45
2022-08-27T05:51:44.728Z,1.19
2022-08-27T05:53:24.544Z,1.46
2022-08-27T05:55:04.261Z,1.46
2022-08-27T05:56:44.019Z,1.19
2022-08-27T05:58:23.783Z,1.05
2022-08-27T06:00:03.546Z,1.33
2022-08-27T06:01:43.323Z,1.33
2022-08-27T06:03:23.080Z,1.46
2022-08-27T06:05:02.853Z,1.47
2022-08-27T06:06:42.605Z,1.33
2022-08-27T06:08:22.371Z,2.55
2022-08-27T06:10:02.154Z,1.88
2022-08-27T06:11:41.917Z,1.88
2022-08-27T06:13:21.655Z,1.61
2022-08-27T06:15:01.421Z,1.61
2022-08-27T06:16:41.184Z,2.02
2022-08-27T06:20:00.727Z,1.89
2022-08-27T06:21:40.494Z,2.03
2022-08-27T06:23:20.255Z,2.44
2022-08-27T06:25:00.020Z,2.45
2022-08-27T06:26:39.786Z,2.31
2022-08-27T06:28:19.546Z,2.31
2022-08-27T06:29:59.301Z,2.59
2022-08-27T06:31:39.065Z,2.86
2022-08-27T06:33:18.836Z,3.42
2022-08-27T06:34:58.597Z,3.01
2022-08-27T06:36:38.370Z,2.46
2022-08-27T06:38:18.129Z,2.18
2022-08-27T06:39:57.888Z,2.31
2022-08-27T06:41:37.662Z,2.18
2022-08-27T06:43:17.422Z,2.58
2022-08-27T06:44:57.172Z,3.14
2022-08-27T06:46:36.939Z,3.7
2022-08-27T06:48:16.707Z,3.43
2022-08-27T06:49:56.475Z,3.15
2022-08-27T06:51:36.244Z,2.87
2022-08-27T06:53:16.001Z,2.73
2022-08-27T06:54:55.776Z,2.6
2022-08-27T06:56:35.532Z,2.73
2022-08-27T06:58:15.293Z,2.73
2022-08-27T06:59:55.046Z,2.59
2022-08-27T07:01:34.815Z,2.46
2022-08-27T07:03:14.587Z,2.18
2022-08-27T07:04:54.338Z,2.04
2022-08-27T07:06:34.112Z,1.9
2022-08-27T07:08:13.873Z,0.68
2022-08-27T07:09:53.635Z,1.77
2022-08-27T07:11:33.410Z,1.9
2022-08-27T07:13:13.181Z,2.04
2022-08-27T07:14:52.936Z,2.04
2022-08-27T07:16:32.693Z,2.18
2022-08-27T07:19:52.226Z,2.04
2022-08-27T07:23:11.743Z,2.45
2022-08-27T07:24:51.517Z,2.59
2022-08-27T07:26:31.272Z,2.59
2022-08-27T07:28:11.041Z,2.87
2022-08-27T07:29:50.813Z,3.29
2022-08-27T07:31:30.569Z,3.16
2022-08-27T07:33:10.336Z,2.88
2022-08-27T07:34:50.103Z,3.02
2022-08-27T07:36:29.858Z,3.3
2022-08-27T07:38:09.636Z,3.72
2022-08-27T07:39:49.397Z,3.87
2022-08-27T07:43:08.929Z,3.59
2022-08-27T07:44:48.685Z,3.59
2022-08-27T07:46:28.454Z,4.29
2022-08-27T07:48:08.227Z,4.59
2022-08-27T07:49:47.977Z,4.03
2022-08-27T07:51:27.750Z,4.44
2022-08-27T07:53:07.513Z,4.61
2022-08-27T07:54:47.292Z,5.03
2022-08-27T07:56:27.048Z,5.33
2022-08-27T07:58:06.804Z,5.63
2022-08-27T07:59:46.581Z,6.36
2022-08-27T08:03:06.103Z,8.64
2022-08-27T08:04:45.870Z,8.07
2022-08-27T08:06:25.617Z,7.46
2022-08-27T08:08:05.379Z,7.77
2022-08-27T08:09:45.147Z,8.85
2022-08-27T08:11:24.907Z,8.74
2022-08-27T08:13:04.679Z,8.28
2022-08-27T08:14:44.442Z,7.66
2022-08-27T08:16:24.206Z,7.52
2022-08-27T08:18:03.974Z,7.23
2022-08-27T08:19:43.734Z,7.37
2022-08-27T08:21:23.501Z,7.22
2022-08-27T08:23:03.271Z,7.57
2022-08-27T08:24:43.033Z,7.27
2022-08-27T08:26:22.802Z,7
2022-08-27T08:28:02.570Z,6.84
2022-08-27T08:29:42.340Z,6.67
2022-08-27T08:31:22.094Z,6.07
2022-08-27T08:33:01.857Z,5.92
2022-08-27T08:36:21.391Z,6.23
2022-08-27T08:38:01.158Z,6.09
2022-08-27T08:41:20.691Z,5.81
2022-08-27T08:43:00.444Z,5.83
2022-08-27T08:44:40.207Z,5.66
2022-08-27T08:46:19.978Z,5.67
2022-08-27T08:47:59.744Z,5.52
2022-08-27T08:49:39.494Z,5.22
2022-08-27T08:51:19.270Z,5.22
2022-08-27T08:52:59.030Z,5.38
2022-08-27T08:54:38.794Z,5.23
2022-08-27T08:56:18.556Z,5.08
2022-08-27T08:57:58.332Z,4.94
2022-08-27T08:59:38.133Z,4.78
2022-08-27T09:01:17.869Z,4.94
2022-08-27T09:02:57.618Z,4.64
2022-08-27T09:04:37.384Z,4.34
2022-08-27T09:06:17.150Z,4.48
2022-08-27T09:09:36.673Z,4.48
2022-08-27T09:11:16.467Z,4.34
2022-08-27T09:12:56.208Z,4.36
2022-08-27T09:14:35.962Z,4.19
2022-08-27T09:16:15.724Z,4.19
2022-08-27T09:17:55.483Z,4.19
2022-08-27T09:19:35.254Z,4.21
2022-08-27T09:21:15.013Z,3.91
2022-08-27T09:22:54.789Z,3.9
2022-08-27T09:24:34.550Z,3.9
2022-08-27T09:26:14.305Z,3.9
2022-08-27T09:27:54.078Z,3.92
2022-08-27T09:29:33.846Z,3.61
2022-08-27T09:31:13.614Z,3.75
2022-08-27T09:32:53.368Z,3.62
2022-08-27T09:34:33.136Z,3.62
2022-08-27T09:36:12.895Z,3.63
2022-08-27T09:37:52.648Z,3.48
2022-08-27T09:39:32.417Z,3.46
2022-08-27T09:41:12.180Z,3.46
2022-08-27T09:42:51.964Z,3.32
2022-08-27T09:44:31.718Z,3.32
2022-08-27T09:46:11.478Z,3.32
2022-08-27T09:47:51.239Z,3.32
2022-08-27T09:49:31.002Z,3.19
2022-08-27T09:51:10.774Z,3.18
2022-08-27T09:52:50.544Z,3.04
2022-08-27T09:54:30.300Z,3.19
2022-08-27T09:56:10.101Z,3.03
2022-08-27T09:57:49.821Z,3.03
2022-08-27T09:59:29.602Z,2.89
2022-08-27T10:01:09.357Z,3.05
2022-08-27T10:02:49.168Z,3.04
2022-08-27T10:04:28.874Z,2.89
2022-08-27T10:06:08.643Z,2.74
2022-08-27T10:07:48.414Z,2.88
2022-08-27T10:09:28.181Z,0.42
2022-08-27T10:12:47.712Z,0.27
2022-08-27T10:14:27.471Z,0.82
2022-08-27T10:16:07.237Z,2.21
2022-08-27T10:17:47.001Z,2.22
2022-08-27T10:19:26.760Z,1.53
2022-08-27T10:21:06.522Z,1.52
2022-08-27T10:22:46.292Z,1.67
2022-08-27T10:24:26.051Z,1.66
2022-08-27T10:26:05.819Z,1.66
2022-08-27T10:27:45.576Z,1.52
2022-08-27T10:29:25.350Z,1.53
2022-08-27T10:31:05.115Z,1.53
2022-08-27T10:32:44.866Z,1.53
2022-08-27T10:34:24.642Z,1.53
2022-08-27T10:36:04.404Z,1.53
2022-08-27T10:37:44.154Z,1.38
2022-08-27T10:39:23.930Z,1.24
2022-08-27T10:41:03.694Z,1.52
2022-08-27T10:42:43.464Z,1.52
2022-08-27T10:44:23.227Z,1.66
2022-08-27T10:46:02.988Z,1.67
2022-08-27T10:47:42.755Z,1.81
2022-08-27T10:49:22.510Z,1.53
2022-08-27T10:51:02.274Z,1.39
2022-08-27T10:52:42.038Z,1.38
2022-08-27T10:54:21.809Z,1.39
2022-08-27T10:56:01.568Z,1.66
2022-08-27T10:57:41.336Z,1.53
2022-08-27T10:59:21.105Z,1.52
2022-08-27T11:01:00.877Z,1.39
2022-08-27T11:02:40.632Z,1.39
2022-08-27T11:04:20.395Z,1.25
2022-08-27T11:06:00.158Z,1.25
2022-08-27T11:07:39.919Z,1.24
2022-08-27T11:09:19.688Z,1.24
2022-08-27T11:10:59.447Z,1.38
2022-08-27T11:12:39.218Z,1.24
2022-08-27T11:14:18.979Z,1.38
2022-08-27T11:15:58.761Z,1.38
2022-08-27T11:17:38.506Z,1.52
2022-08-27T11:19:18.266Z,1.52
2022-08-27T11:20:58.038Z,1.52
2022-08-27T11:22:37.794Z,1.67
2022-08-27T11:24:17.555Z,1.67
2022-08-27T11:25:57.382Z,1.24
2022-08-27T11:29:16.854Z,1.24
2022-08-27T11:30:56.628Z,1.24
2022-08-27T11:32:36.368Z,1.24
2022-08-27T11:34:16.152Z,1.38
2022-08-27T11:35:55.907Z,1.38
2022-08-27T11:37:35.675Z,1.52
2022-08-27T11:39:15.451Z,1.38
2022-08-27T11:40:55.205Z,1.38
2022-08-27T11:42:34.959Z,1.52
2022-08-27T11:44:14.731Z,1.52
2022-08-27T11:45:54.497Z,1.38
2022-08-27T11:47:34.263Z,1.52
2022-08-27T11:49:14.014Z,1.39
2022-08-27T11:50:53.776Z,1.53
2022-08-27T11:52:33.541Z,1.39
2022-08-27T11:54:13.298Z,1.39
2022-08-27T11:55:53.087Z,1.53
2022-08-27T11:57:32.847Z,1.25
2022-08-27T11:59:12.612Z,1.39
2022-08-27T12:00:52.374Z,1.25
2022-08-27T12:02:32.144Z,1.38
2022-08-27T12:04:11.898Z,1.24
2022-08-27T12:05:51.651Z,1.38
2022-08-27T12:07:31.428Z,1.38
2022-08-27T12:09:11.184Z,1.24
2022-08-27T12:10:50.961Z,1.24
2022-08-27T12:12:30.710Z,1.24
2022-08-27T12:14:10.476Z,1.38
2022-08-27T12:15:50.286Z,1.24
2022-08-27T12:19:09.772Z,1.38
2022-08-27T12:20:49.538Z,1.38
2022-08-27T12:22:29.308Z,1.24
2022-08-27T12:24:09.064Z,1.38
2022-08-27T12:25:48.833Z,1.38
2022-08-27T12:27:28.599Z,1.38
2022-08-27T12:29:08.352Z,1.38
2022-08-27T12:30:48.144Z,1.24
2022-08-27T12:32:27.881Z,1.39
2022-08-27T12:34:07.654Z,1.53
2022-08-27T12:35:47.429Z,1.24
2022-08-27T12:37:27.181Z,1.24
2022-08-27T12:39:06.935Z,1.52
2022-08-27T12:40:46.712Z,1.24
2022-08-27T12:42:26.506Z,1.24
2022-08-27T12:44:06.242Z,1.38
2022-08-27T12:45:46.002Z,1.24
2022-08-27T12:49:05.531Z,1.24
2022-08-27T12:50:45.307Z,1.38
2022-08-27T12:52:25.061Z,1.24
2022-08-27T12:54:04.809Z,1.1
2022-08-27T12:55:44.583Z,1.38
2022-08-27T12:57:24.357Z,1.52
2022-08-27T13:00:43.873Z,1.25
2022-08-27T13:02:23.647Z,1.25
2022-08-27T13:04:03.405Z,1.1
2022-08-27T13:05:43.173Z,1.24
2022-08-27T13:07:22.930Z,1.24
2022-08-27T13:09:02.700Z,1.24
2022-08-27T13:10:42.463Z,1.24
2022-08-27T13:12:22.234Z,1.38
2022-08-27T13:14:01.981Z,1.24
2022-08-27T13:15:41.762Z,1.24
2022-08-27T13:17:21.520Z,1.38
2022-08-27T13:19:01.283Z,1.25
2022-08-27T13:20:41.065Z,1.39
2022-08-27T13:22:20.820Z,1.11
2022-08-27T13:24:00.572Z,1.1
2022-08-27T13:25:40.347Z,1.24
2022-08-27T13:27:20.101Z,1.1
2022-08-27T13:28:59.872Z,1.1
2022-08-27T13:30:39.637Z,1.24
2022-08-27T13:32:19.393Z,1.1
2022-08-27T13:33:59.162Z,1.24
2022-08-27T13:35:38.918Z,1.24
2022-08-27T13:37:18.688Z,1.38
2022-08-27T13:38:58.461Z,1.24
2022-08-27T13:40:38.212Z,1.24
2022-08-27T13:42:17.975Z,1.38
2022-08-27T13:43:57.746Z,1.38
2022-08-27T13:45:37.519Z,1.24
2022-08-27T13:47:17.281Z,1.24
2022-08-27T13:48:57.037Z,1.24
2022-08-27T13:50:36.803Z,1.24
2022-08-27T13:52:16.562Z,1.1
2022-08-27T13:53:56.337Z,1.24
2022-08-27T13:55:36.110Z,1.38
2022-08-27T13:57:15.855Z,1.24
2022-08-27T13:58:55.616Z,1.24
2022-08-27T14:00:35.386Z,1.24
2022-08-27T14:02:15.145Z,1.25
2022-08-27T14:03:54.917Z,1.1
2022-08-27T14:05:34.691Z,1.24
2022-08-27T14:07:14.450Z,1.24
2022-08-27T14:08:54.205Z,1.38
2022-08-27T14:10:33.961Z,1.24
2022-08-27T14:12:13.725Z,1.1
2022-08-27T14:13:53.493Z,1.1
2022-08-27T14:15:33.265Z,1.24
2022-08-27T14:17:13.018Z,1.24
2022-08-27T14:18:52.787Z,1.24
2022-08-27T14:20:32.563Z,1.1
2022-08-27T14:22:12.328Z,1.24
2022-08-27T14:23:52.099Z,1.1
2022-08-27T14:25:31.852Z,1.24
2022-08-27T14:27:11.616Z,1.24
2022-08-27T14:28:51.400Z,1.24
2022-08-27T14:30:31.139Z,1.24
2022-08-27T14:32:10.907Z,1.1
2022-08-27T14:33:50.685Z,1.1
2022-08-27T14:35:30.433Z,1.24
2022-08-27T14:37:10.208Z,1.24
2022-08-27T14:38:49.966Z,1.1
2022-08-27T14:42:09.582Z,1.1
2022-08-27T14:43:49.303Z,1.1
2022-08-27T14:45:29.029Z,1.1
2022-08-27T14:47:08.794Z,1.24
2022-08-27T14:48:48.558Z,1.11
2022-08-27T14:50:28.302Z,1.1
2022-08-27T14:52:08.075Z,1.24
2022-08-27T14:53:47.832Z,1.24
2022-08-27T14:55:27.599Z,0.96
2022-08-27T14:57:07.374Z,1.1
2022-08-27T14:58:47.124Z,1.1
2022-08-27T15:00:26.894Z,1.1
2022-08-27T15:02:06.665Z,1.1
2022-08-27T15:03:46.413Z,0.96
2022-08-27T15:05:26.193Z,0.96
2022-08-27T15:07:05.968Z,1.1
2022-08-27T15:08:45.708Z,1.1
2022-08-27T15:10:25.497Z,1.38
2022-08-27T15:12:05.245Z,1.1
2022-08-27T15:13:45.007Z,1.1
2022-08-27T15:15:24.780Z,1.1
2022-08-27T15:17:04.534Z,1.24
2022-08-27T15:18:44.299Z,1.24
2022-08-27T15:22:03.838Z,1.1
2022-08-27T15:23:43.585Z,0.96
2022-08-27T15:25:23.360Z,1.24
2022-08-27T15:27:03.129Z,0.96
2022-08-27T15:28:42.885Z,0.96
2022-08-27T15:30:22.649Z,1.24
2022-08-27T15:32:02.419Z,0.96
2022-08-27T15:33:42.191Z,1.1
2022-08-27T15:35:21.951Z,1.1
2022-08-27T15:37:01.702Z,1.1
2022-08-27T15:38:41.466Z,0.96
2022-08-27T15:40:21.233Z,1.24
2022-08-27T15:42:00.993Z,1.1
2022-08-27T15:43:40.752Z,1.1
2022-08-27T15:45:20.521Z,1.11
2022-08-27T15:47:00.296Z,0.96
2022-08-27T15:48:40.161Z,1.24
2022-08-27T15:51:59.579Z,1.1
2022-08-27T15:53:39.342Z,1.1
2022-08-27T15:55:19.115Z,1.24
2022-08-27T15:56:58.890Z,1.1
2022-08-27T15:58:38.631Z,1.1
2022-08-27T16:00:18.409Z,0.96
2022-08-27T16:01:58.164Z,0.96
2022-08-27T16:03:37.930Z,1.1
2022-08-27T16:05:17.709Z,1.1
2022-08-27T16:06:57.456Z,1.11
2022-08-27T16:08:37.232Z,1.23
2022-08-27T16:11:56.756Z,0.96
2022-08-27T16:13:36.520Z,0.82
2022-08-27T16:15:16.270Z,1.1
2022-08-27T16:16:56.039Z,1.1
2022-08-27T16:18:35.807Z,1.1
2022-08-27T16:20:15.571Z,1.1
2022-08-27T16:21:55.340Z,0.96
2022-08-27T16:23:35.109Z,0.96
2022-08-27T16:25:14.875Z,1.1
2022-08-27T16:28:34.397Z,1.1
2022-08-27T16:30:14.150Z,0.96
2022-08-27T16:31:53.918Z,1.1
2022-08-27T16:33:33.693Z,1.1
2022-08-27T16:35:13.449Z,1.11
2022-08-27T16:38:32.976Z,1.24
2022-08-27T16:40:12.748Z,1.1
2022-08-27T16:41:52.508Z,1.1
2022-08-27T16:43:32.269Z,1.1
2022-08-27T16:45:12.045Z,1.1
2022-08-27T16:46:51.791Z,0.97
2022-08-27T16:48:31.559Z,1.1
2022-08-27T16:50:11.322Z,0.97
2022-08-27T16:51:51.085Z,1.1
2022-08-27T16:53:30.849Z,0.96
2022-08-27T16:55:10.649Z,1.1
2022-08-27T16:56:50.389Z,1.1
2022-08-27T16:58:30.143Z,0.96
2022-08-27T17:00:09.917Z,1.1
2022-08-27T17:01:49.664Z,1.1
2022-08-27T17:03:29.448Z,1.1
2022-08-27T17:05:09.217Z,1.1
2022-08-27T17:06:48.965Z,1.1
2022-08-27T17:08:28.741Z,0.96
2022-08-27T17:10:08.497Z,1.1
2022-08-27T17:11:48.260Z,1.24
2022-08-27T17:13:28.036Z,1.1
2022-08-27T17:15:07.792Z,1.1
2022-08-27T17:16:47.559Z,1.1
2022-08-27T17:18:27.323Z,1.1
2022-08-27T17:20:07.070Z,1.24
2022-08-27T17:21:46.845Z,1.1
2022-08-27T17:23:26.616Z,1.24
2022-08-27T17:25:06.365Z,1.1
2022-08-27T17:28:25.902Z,1.1
2022-08-27T17:30:05.708Z,0.82
2022-08-27T17:31:45.427Z,0.54
2022-08-27T17:33:25.189Z,0.52
2022-08-27T17:35:04.968Z,0.52
2022-08-27T17:36:44.733Z,0.52
2022-08-27T17:38:24.487Z,0.4
2022-08-27T17:40:04.248Z,0.4
2022-08-27T17:41:44.020Z,0.39
2022-08-27T17:43:23.784Z,0.39
2022-08-27T17:45:03.539Z,0.39
2022-08-27T17:48:23.065Z,0.39
2022-08-27T17:50:02.834Z,0
2022-08-27T17:51:42.613Z,0
2022-08-27T17:53:22.362Z,0
2022-08-27T17:55:02.111Z,0
2022-08-27T17:56:41.902Z,0
2022-08-27T17:58:21.649Z,0
2022-08-27T18:00:01.427Z,0
2022-08-27T18:01:41.175Z,0
2022-08-27T18:03:20.958Z,0
2022-08-27T18:05:00.710Z,0
2022-08-27T18:06:40.494Z,0
2022-08-27T18:08:20.246Z,0
2022-08-27T18:10:00.027Z,0
2022-08-27T18:11:39.780Z,0
2022-08-27T18:13:19.531Z,0
2022-08-27T18:14:59.311Z,0
2022-08-27T18:18:18.832Z,0
2022-08-27T18:21:38.359Z,0
2022-08-27T18:23:18.124Z,0
2022-08-27T18:24:57.874Z,0
2022-08-27T18:26:37.648Z,0
2022-08-27T18:28:17.401Z,0
2022-08-27T18:29:57.173Z,0
2022-08-27T18:31:36.941Z,0
2022-08-27T18:33:16.692Z,0
2022-08-27T18:34:56.463Z,0
2022-08-27T18:36:36.226Z,0
2022-08-27T18:38:15.987Z,0
2022-08-27T18:39:55.753Z,0
2022-08-27T18:41:35.510Z,0
2022-08-27T18:43:15.287Z,0
2022-08-27T18:44:55.059Z,0
2022-08-27T18:46:34.823Z,0
2022-08-27T18:48:14.582Z,0
2022-08-27T18:49:54.341Z,0
2022-08-27T18:51:34.113Z,0
2022-08-27T18:53:13.884Z,0
2022-08-27T18:54:53.639Z,0
2022-08-27T18:56:33.390Z,0
2022-08-27T18:58:13.165Z,0
2022-08-27T18:59:52.915Z,0
2022-08-27T19:01:32.689Z,0
2022-08-27T19:03:12.460Z,0
2022-08-27T19:04:52.221Z,0
2022-08-27T19:06:31.977Z,0
2022-08-27T19:08:11.761Z,0
2022-08-27T19:09:51.504Z,0
2022-08-27T19:11:31.271Z,0
2022-08-27T19:13:11.043Z,0
2022-08-27T19:14:50.803Z,0
2022-08-27T19:16:30.569Z,0
2022-08-27T19:18:10.341Z,0
2022-08-27T19:19:50.141Z,0
2022-08-27T19:21:29.855Z,0
2022-08-27T19:23:09.622Z,0
2022-08-27T19:26:29.153Z,0
2022-08-27T19:28:08.925Z,0
2022-08-27T19:29:48.687Z,0
2022-08-27T19:31:28.438Z,0
2022-08-27T19:33:08.211Z,0
2022-08-27T19:34:47.978Z,0
2022-08-27T19:38:07.504Z,0
2022-08-27T19:39:47.258Z,0
2022-08-27T19:41:27.040Z,0
2022-08-27T19:43:06.785Z,0
2022-08-27T19:44:46.555Z,0
2022-08-27T19:48:06.097Z,0
2022-08-27T19:49:45.849Z,0
2022-08-27T19:51:25.606Z,0
2022-08-27T19:53:05.376Z,0
2022-08-27T19:54:45.144Z,0
2022-08-27T19:56:24.909Z,0
2022-08-27T19:58:04.665Z,0
2022-08-27T19:59:44.436Z,0
2022-08-27T20:01:24.219Z,0
2022-08-27T20:03:03.970Z,0
2022-08-27T20:04:43.732Z,0
2022-08-27T20:08:03.258Z,0
2022-08-27T20:09:43.018Z,0
2022-08-27T20:11:22.782Z,0
2022-08-27T20:13:02.577Z,0
2022-08-27T20:14:42.309Z,0
2022-08-27T20:16:22.061Z,0
2022-08-27T20:18:01.832Z,0
2022-08-27T20:19:41.604Z,0
2022-08-27T20:21:21.352Z,0
2022-08-27T20:23:01.153Z,0
2022-08-27T20:24:40.889Z,0
2022-08-27T20:26:20.647Z,0
2022-08-27T20:28:00.442Z,0
2022-08-27T20:29:40.192Z,0
2022-08-27T20:31:19.945Z,0
2022-08-27T20:32:59.710Z,0
2022-08-27T20:34:39.477Z,0
2022-08-27T20:36:19.235Z,0
2022-08-27T20:37:58.996Z,0
2022-08-27T20:39:38.758Z,0
2022-08-27T20:41:18.524Z,0
2022-08-27T20:42:58.295Z,0
2022-08-27T20:44:38.057Z,0
2022-08-27T20:46:17.831Z,0
2022-08-27T20:47:57.601Z,0
2022-08-27T20:49:37.362Z,0
2022-08-27T20:51:17.124Z,0
2022-08-27T20:52:56.869Z,0
2022-08-27T20:54:36.652Z,0
2022-08-27T20:57:56.172Z,0
2022-08-27T20:59:35.932Z,0
2022-08-27T21:01:15.690Z,0
2022-08-27T21:02:55.483Z,0
2022-08-27T21:04:35.218Z,0
2022-08-27T21:06:15.000Z,0
2022-08-27T21:07:54.751Z,0
2022-08-27T21:09:34.518Z,0
2022-08-27T21:11:14.270Z,0
2022-08-27T21:12:54.058Z,0
2022-08-27T21:14:33.809Z,0
2022-08-27T21:16:13.580Z,0
2022-08-27T21:17:53.333Z,0
2022-08-27T21:21:12.860Z,0
2022-08-27T21:22:52.626Z,0
2022-08-27T21:24:32.403Z,0
2022-08-27T21:26:12.162Z,0
2022-08-27T21:27:51.915Z,0
2022-08-27T21:29:31.693Z,0
2022-08-27T21:31:11.459Z,0
2022-08-27T21:32:51.214Z,0
2022-08-27T21:34:30.972Z,0
2022-08-27T21:36:10.747Z,0
2022-08-27T21:37:50.508Z,0
2022-08-27T21:39:30.273Z,0
2022-08-27T21:41:10.027Z,0
2022-08-27T21:42:49.802Z,0
2022-08-27T21:44:29.567Z,0
2022-08-27T21:46:09.323Z,0
2022-08-27T21:47:49.099Z,0
2022-08-27T21:49:28.859Z,0
2022-08-27T21:51:08.620Z,0
2022-08-27T21:52:48.381Z,0
2022-08-27T21:54:28.148Z,0
2022-08-27T21:57:47.683Z,0
2022-08-27T21:59:27.438Z,0
2022-08-27T22:01:07.193Z,0
2022-08-27T22:02:46.961Z,0
2022-08-27T22:04:26.722Z,0
2022-08-27T22:06:06.486Z,0
2022-08-27T22:07:46.265Z,0
2022-08-27T22:09:26.019Z,0
2022-08-27T22:11:05.775Z,0
2022-08-27T22:12:45.545Z,0
2022-08-27T22:14:25.319Z,0
2022-08-27T22:16:05.075Z,0
2022-08-27T22:17:44.839Z,0
2022-08-27T22:19:24.606Z,0
2022-08-27T22:21:04.371Z,0
2022-08-27T22:22:44.142Z,0
2022-08-27T22:24:23.902Z,0
2022-08-27T22:26:03.658Z,0
2022-08-27T22:27:43.422Z,0
2022-08-27T22:29:23.200Z,0
2022-08-27T22:31:02.945Z,0
2022-08-27T22:32:42.722Z,0
2022-08-27T22:34:22.487Z,0
2022-08-27T22:36:02.241Z,0
2022-08-27T22:37:42.020Z,0
2022-08-27T22:39:21.764Z,0
2022-08-27T22:41:01.543Z,0
2022-08-27T22:42:41.304Z,0
2022-08-27T22:44:21.086Z,0
2022-08-27T22:47:40.599Z,0
2022-08-27T22:49:20.358Z,0
2022-08-27T22:51:00.139Z,0
2022-08-27T22:52:39.876Z,0
2022-08-27T22:54:19.640Z,0
2022-08-27T22:55:59.411Z,0
2022-08-27T22:57:39.178Z,0
2022-08-27T22:59:18.949Z,0
2022-08-27T23:00:58.694Z,0
2022-08-27T23:02:38.475Z,0
2022-08-27T23:04:18.227Z,0
2022-08-27T23:07:37.765Z,0
2022-08-27T23:09:17.531Z,0
2022-08-27T23:10:57.296Z,0
2022-08-27T23:12:37.064Z,0
2022-08-27T23:14:16.816Z,0
2022-08-27T23:15:56.589Z,0
2022-08-27T23:17:36.348Z,0
2022-08-27T23:19:16.104Z,0
2022-08-27T23:20:55.892Z,0
2022-08-27T23:22:35.637Z,0
2022-08-27T23:24:15.409Z,0
2022-08-27T23:25:55.171Z,0
2022-08-27T23:27:34.943Z,0
2022-08-27T23:29:14.703Z,0
2022-08-27T23:30:54.452Z,0
2022-08-27T23:32:34.231Z,0
2022-08-27T23:34:13.977Z,0
2022-08-27T23:35:53.758Z,0
2022-08-27T23:37:33.528Z,0
2022-08-27T23:39:13.288Z,0
2022-08-27T23:40:53.045Z,0
2022-08-27T23:42:32.812Z,0
2022-08-27T23:44:12.575Z,0
2022-08-27T23:45:52.338Z,0
2022-08-27T23:47:32.094Z,0
2022-08-27T23:49:11.861Z,0
2022-08-27T23:50:51.633Z,0
2022-08-27T23:52:31.381Z,0
2022-08-27T23:54:11.152Z,0
2022-08-27T23:55:50.912Z,0
2022-08-27T23:57:30.682Z,0
2022-08-27T23:59:10.435Z,0
